Time;durP1;ratioP1;P1;durP2;ratioP2;P2;SDS_P1;SDS_P2;PMS_P1;PMS_P2;Temp;Humidity;BMP_temperature;BMP_pressure;BME280_temperature;BME280_humidity;BME280_pressure;Samples;Min_cycle;Max_cycle;Signal;HPM_P1;HPM_P2
2023/06/02 00:00:39;;;;;;;10.00;6.13;;;13.60;28.60;;;;;;5013233;28;46760;-66
2023/06/02 00:03:05;;;;;;;8.63;6.23;;;13.50;28.60;;;;;;5017284;28;46381;-65
2023/06/02 00:05:32;;;;;;;11.70;6.97;;;13.50;28.60;;;;;;4996614;28;46522;-65
2023/06/02 00:07:58;;;;;;;10.13;6.40;;;13.50;29.00;;;;;;5014318;28;46544;-66
2023/06/02 00:10:24;;;;;;;14.50;6.67;;;13.40;29.20;;;;;;5014102;28;46526;-67
2023/06/02 00:12:50;;;;;;;16.60;6.90;;;13.40;29.50;;;;;;5013952;28;46411;-66
2023/06/02 00:15:17;;;;;;;17.73;6.30;;;13.40;29.60;;;;;;5012807;28;46298;-66
2023/06/02 00:17:43;;;;;;;15.83;6.63;;;13.30;29.70;;;;;;5019747;28;47446;-66
2023/06/02 00:20:11;;;;;;;10.73;6.77;;;13.30;29.80;;;;;;5016704;28;46582;-66
2023/06/02 00:22:38;;;;;;;10.20;6.27;;;13.30;30.00;;;;;;5014879;28;46485;-65
2023/06/02 00:25:05;;;;;;;13.33;7.50;;;13.30;30.00;;;;;;5014797;28;46583;-66
2023/06/02 00:27:31;;;;;;;11.17;6.73;;;13.20;30.10;;;;;;5017353;28;46261;-66
2023/06/02 00:29:57;;;;;;;13.13;7.33;;;13.20;30.30;;;;;;5019364;28;45763;-66
2023/06/02 00:32:23;;;;;;;10.57;7.50;;;13.20;30.50;;;;;;5016614;28;46427;-66
2023/06/02 00:34:49;;;;;;;11.30;7.20;;;13.10;30.80;;;;;;5016734;28;46356;-66
2023/06/02 00:37:14;;;;;;;10.23;7.00;;;13.10;31.10;;;;;;4998840;28;48170;-66
2023/06/02 00:39:40;;;;;;;14.47;7.67;;;13.10;31.20;;;;;;5016142;28;46487;-65
2023/06/02 00:42:06;;;;;;;12.97;7.33;;;13.00;31.40;;;;;;5015297;28;46541;-66
2023/06/02 00:44:32;;;;;;;11.00;7.80;;;12.90;31.60;;;;;;5015624;28;46366;-66
2023/06/02 00:46:58;;;;;;;16.20;7.07;;;12.80;31.80;;;;;;5015046;28;47496;-66
2023/06/02 00:49:24;;;;;;;11.43;5.90;;;12.80;32.10;;;;;;5016874;28;46397;-66
2023/06/02 00:51:50;;;;;;;13.43;6.87;;;12.80;32.10;;;;;;4998368;28;46413;-66
2023/06/02 00:54:16;;;;;;;15.13;6.57;;;12.70;32.10;;;;;;5015954;28;46441;-65
2023/06/02 00:56:43;;;;;;;13.93;7.30;;;12.70;32.30;;;;;;5016809;28;47071;-65
2023/06/02 00:59:10;;;;;;;17.20;8.07;;;12.70;32.40;;;;;;5015964;28;46602;-67
2023/06/02 01:01:38;;;;;;;12.57;7.50;;;12.70;32.60;;;;;;5014560;28;46206;-66
2023/06/02 01:04:05;;;;;;;10.33;7.60;;;12.60;32.60;;;;;;5018153;28;46325;-66
2023/06/02 01:06:37;;;;;;;10.40;6.70;;;12.60;32.70;;;;;;5014867;28;48213;-65
2023/06/02 01:09:09;;;;;;;20.33;9.00;;;12.50;32.70;;;;;;5015178;28;45874;-66
2023/06/02 01:11:34;;;;;;;10.63;6.83;;;12.50;32.80;;;;;;5016679;28;46207;-66
2023/06/02 01:14:00;;;;;;;14.37;7.10;;;12.50;33.00;;;;;;5017599;28;46716;-67
2023/06/02 01:16:30;;;;;;;12.43;7.47;;;12.40;33.30;;;;;;5015119;28;47025;-66
2023/06/02 01:18:59;;;;;;;24.00;8.13;;;12.40;33.50;;;;;;5009301;28;46678;-67
2023/06/02 01:21:30;;;;;;;13.67;8.97;;;12.40;33.70;;;;;;5011283;28;46510;-66
2023/06/02 01:23:59;;;;;;;14.87;7.20;;;12.30;33.80;;;;;;5016401;28;46453;-66
2023/06/02 01:26:25;;;;;;;13.50;8.60;;;12.30;33.80;;;;;;5015517;28;48018;-66
2023/06/02 01:28:51;;;;;;;14.00;7.70;;;12.40;33.90;;;;;;5009478;28;46587;-67
2023/06/02 01:31:20;;;;;;;13.80;7.27;;;12.30;33.90;;;;;;5009630;28;46562;-66
2023/06/02 01:34:02;;;;;;;10.57;7.83;;;12.40;34.10;;;;;;5016055;28;46704;-66
2023/06/02 01:36:29;;;;;;;12.77;8.00;;;12.30;34.20;;;;;;5016426;28;46785;-67
2023/06/02 01:38:57;;;;;;;12.63;7.00;;;12.30;33.90;;;;;;5015125;28;46637;-67
2023/06/02 01:41:25;;;;;;;12.30;7.77;;;12.40;33.90;;;;;;5006338;28;46341;-67
2023/06/02 01:43:52;;;;;;;12.07;7.80;;;12.40;34.10;;;;;;5012024;28;46357;-66
2023/06/02 01:46:18;;;;;;;11.47;8.27;;;12.40;34.20;;;;;;5014485;28;46427;-65
2023/06/02 01:48:44;;;;;;;15.57;8.63;;;12.40;34.20;;;;;;5014693;28;46478;-65
2023/06/02 01:51:09;;;;;;;12.60;8.10;;;12.40;34.30;;;;;;5015507;28;46426;-67
2023/06/02 01:53:35;;;;;;;17.03;8.43;;;12.40;34.40;;;;;;5017006;28;46540;-67
2023/06/02 01:56:01;;;;;;;12.87;8.33;;;12.40;34.50;;;;;;5015782;28;46435;-66
2023/06/02 01:58:26;;;;;;;19.47;9.20;;;12.40;34.60;;;;;;5016056;28;46335;-66
2023/06/02 02:00:54;;;;;;;18.17;9.63;;;12.40;34.80;;;;;;5008136;28;46512;-67
2023/06/02 02:03:22;;;;;;;12.37;8.70;;;12.40;35.20;;;;;;5015261;28;45864;-66
2023/06/02 02:05:47;;;;;;;12.43;8.20;;;12.40;35.30;;;;;;5015025;28;48270;-67
2023/06/02 02:08:13;;;;;;;13.03;8.93;;;12.30;35.30;;;;;;5015621;28;46381;-66
2023/06/02 02:10:39;;;;;;;14.97;9.40;;;12.30;35.40;;;;;;5010978;28;46695;-64
2023/06/02 02:13:05;;;;;;;14.07;8.80;;;12.30;35.60;;;;;;5015288;28;46700;-66
2023/06/02 02:15:31;;;;;;;21.33;8.93;;;12.30;35.70;;;;;;5016602;28;46040;-66
2023/06/02 02:17:59;;;;;;;13.63;8.70;;;12.30;36.10;;;;;;5013872;28;46475;-66
2023/06/02 02:20:26;;;;;;;12.37;8.53;;;12.30;36.10;;;;;;4990375;28;46522;-66
2023/06/02 02:22:52;;;;;;;21.83;10.37;;;12.30;36.30;;;;;;5014562;28;46633;-66
2023/06/02 02:25:18;;;;;;;14.73;8.50;;;12.20;36.40;;;;;;5012943;28;46082;-66
2023/06/02 02:27:43;;;;;;;14.00;8.33;;;12.20;36.50;;;;;;5013762;28;45775;-65
2023/06/02 02:30:10;;;;;;;13.60;8.87;;;12.20;36.60;;;;;;5010221;28;46414;-66
2023/06/02 02:32:38;;;;;;;12.43;8.33;;;12.20;36.60;;;;;;5015591;28;46272;-66
2023/06/02 02:35:04;;;;;;;18.40;10.03;;;12.20;36.80;;;;;;5016250;28;46680;-66
2023/06/02 02:37:30;;;;;;;14.77;8.80;;;12.10;36.70;;;;;;5010950;28;46496;-66
2023/06/02 02:39:56;;;;;;;15.20;9.77;;;12.10;37.00;;;;;;5006489;28;46473;-66
2023/06/02 02:42:22;;;;;;;17.03;9.00;;;12.00;37.20;;;;;;5013511;28;46573;-66
2023/06/02 02:44:47;;;;;;;14.50;9.10;;;12.00;37.30;;;;;;5015355;28;46382;-66
2023/06/02 02:47:13;;;;;;;12.73;8.70;;;12.00;37.50;;;;;;5010567;28;46442;-67
2023/06/02 02:49:39;;;;;;;13.97;8.83;;;11.90;37.60;;;;;;5008537;28;46757;-66
2023/06/02 02:52:05;;;;;;;12.00;9.20;;;11.90;37.80;;;;;;5001253;28;46130;-66
2023/06/02 02:54:30;;;;;;;15.53;9.97;;;11.80;37.90;;;;;;5020297;28;46360;-66
2023/06/02 02:56:56;;;;;;;16.40;9.80;;;11.80;38.10;;;;;;5016033;28;46394;-66
2023/06/02 02:59:22;;;;;;;17.57;9.90;;;11.80;38.30;;;;;;5014630;28;46308;-66
2023/06/02 03:01:47;;;;;;;13.93;9.70;;;11.70;38.40;;;;;;5016159;28;46590;-67
2023/06/02 03:04:21;;;;;;;14.50;10.10;;;11.70;38.70;;;;;;5017547;28;46101;-67
2023/06/02 03:06:49;;;;;;;18.00;10.47;;;11.70;38.90;;;;;;5012896;28;46327;-66
2023/06/02 03:09:18;;;;;;;14.00;9.60;;;11.60;39.00;;;;;;5016331;28;46403;-66
2023/06/02 03:11:44;;;;;;;14.83;9.60;;;11.60;39.40;;;;;;5018550;28;46782;-66
2023/06/02 03:14:10;;;;;;;15.30;9.13;;;11.60;39.50;;;;;;5018266;28;47054;-66
2023/06/02 03:16:40;;;;;;;13.30;8.60;;;11.60;39.60;;;;;;5014333;28;46370;-66
2023/06/02 03:19:07;;;;;;;14.67;8.87;;;11.60;39.70;;;;;;5018248;28;46488;-66
2023/06/02 03:21:41;;;;;;;14.33;8.40;;;11.50;39.40;;;;;;5018915;28;46392;-66
2023/06/02 03:24:10;;;;;;;13.33;9.40;;;11.60;39.20;;;;;;5017518;28;47231;-66
2023/06/02 03:26:37;;;;;;;13.40;8.97;;;11.60;39.20;;;;;;5013020;28;46419;-66
2023/06/02 03:29:03;;;;;;;13.97;9.53;;;11.60;39.10;;;;;;5014521;28;46353;-66
2023/06/02 03:31:28;;;;;;;13.57;8.93;;;11.60;39.10;;;;;;5019238;28;46359;-66
2023/06/02 03:33:54;;;;;;;10.70;7.80;;;11.60;39.20;;;;;;5014467;28;46707;-66
2023/06/02 03:36:20;;;;;;;13.73;8.27;;;11.60;39.10;;;;;;5015168;28;46383;-66
2023/06/02 03:38:46;;;;;;;12.73;8.20;;;11.60;39.00;;;;;;5016515;28;45781;-68
2023/06/02 03:41:15;;;;;;;12.97;8.40;;;11.70;39.10;;;;;;5015440;28;46454;-66
2023/06/02 03:43:40;;;;;;;12.00;7.10;;;11.70;39.10;;;;;;5015365;28;47250;-66
2023/06/02 03:46:06;;;;;;;14.53;8.07;;;11.70;39.00;;;;;;5012112;28;46609;-66
2023/06/02 03:48:32;;;;;;;13.97;8.90;;;11.70;38.90;;;;;;5016804;28;46374;-66
2023/06/02 03:50:58;;;;;;;13.13;8.70;;;11.70;38.80;;;;;;5013872;28;46650;-65
2023/06/02 03:53:24;;;;;;;12.17;7.67;;;11.80;38.70;;;;;;5015770;28;47295;-66
2023/06/02 03:55:50;;;;;;;11.90;8.03;;;11.80;38.60;;;;;;5015046;28;46410;-65
2023/06/02 03:58:15;;;;;;;13.40;8.17;;;11.90;38.50;;;;;;5015509;28;46441;-66
2023/06/02 04:00:41;;;;;;;10.47;7.50;;;11.90;38.40;;;;;;5017525;28;46513;-66
2023/06/02 04:03:09;;;;;;;13.87;9.10;;;12.00;38.30;;;;;;5011599;28;47977;-65
2023/06/02 04:05:35;;;;;;;15.50;8.23;;;12.10;38.30;;;;;;5013694;28;46371;-66
2023/06/02 04:08:02;;;;;;;11.97;8.60;;;12.10;38.20;;;;;;5014747;28;46379;-66
2023/06/02 04:10:30;;;;;;;11.87;8.00;;;12.20;38.20;;;;;;5017030;28;46592;-66
2023/06/02 04:12:56;;;;;;;17.13;7.70;;;12.30;38.20;;;;;;4998747;28;46608;-66
2023/06/02 04:15:22;;;;;;;17.23;8.70;;;12.40;38.00;;;;;;5011296;28;46482;-66
2023/06/02 04:17:47;;;;;;;10.17;7.40;;;12.50;37.80;;;;;;5011952;28;46422;-66
2023/06/02 04:20:13;;;;;;;13.27;8.97;;;12.60;37.50;;;;;;5017464;28;46432;-66
2023/06/02 04:22:39;;;;;;;11.77;8.10;;;12.70;37.20;;;;;;5013141;28;46996;-67
2023/06/02 04:25:06;;;;;;;13.20;8.67;;;12.80;36.90;;;;;;5014574;28;46397;-66
2023/06/02 04:27:32;;;;;;;10.33;7.77;;;13.00;36.90;;;;;;5018061;28;46396;-66
2023/06/02 04:29:58;;;;;;;11.77;8.53;;;13.10;36.50;;;;;;5016104;28;46466;-67
2023/06/02 04:32:24;;;;;;;13.77;9.17;;;13.30;36.40;;;;;;5016604;28;46682;-67
2023/06/02 04:34:50;;;;;;;13.37;8.30;;;13.50;36.20;;;;;;5011765;28;46553;-66
2023/06/02 04:37:16;;;;;;;15.13;8.07;;;13.60;36.10;;;;;;5017377;28;46438;-66
2023/06/02 04:39:47;;;;;;;14.57;8.40;;;13.80;35.80;;;;;;5000642;28;46490;-66
2023/06/02 04:42:13;;;;;;;13.73;7.60;;;14.00;35.20;;;;;;5016901;28;46762;-67
2023/06/02 04:44:40;;;;;;;11.83;7.27;;;15.00;33.90;;;;;;5015913;28;45871;-66
2023/06/02 04:47:06;;;;;;;10.17;6.80;;;16.70;31.90;;;;;;5018280;28;46500;-66
2023/06/02 04:49:32;;;;;;;17.67;7.03;;;18.30;29.30;;;;;;5018781;28;46702;-67
2023/06/02 04:51:58;;;;;;;16.37;6.60;;;19.50;27.10;;;;;;5016594;28;46378;-66
2023/06/02 04:54:23;;;;;;;8.83;6.10;;;20.50;25.20;;;;;;5013607;28;45861;-67
2023/06/02 04:56:49;;;;;;;9.50;6.50;;;21.20;23.80;;;;;;5014795;28;46213;-67
2023/06/02 04:59:15;;;;;;;8.77;6.17;;;21.50;23.50;;;;;;5016249;28;46431;-66
2023/06/02 05:01:41;;;;;;;10.67;7.10;;;22.10;22.10;;;;;;5012442;28;46427;-67
2023/06/02 05:04:07;;;;;;;9.60;6.63;;;22.90;20.80;;;;;;5014532;28;46381;-67
2023/06/02 05:06:32;;;;;;;12.43;5.37;;;23.70;19.20;;;;;;5017018;28;46378;-67
2023/06/02 05:09:02;;;;;;;13.03;5.93;;;24.30;17.30;;;;;;5011395;28;46402;-67
2023/06/02 05:11:27;;;;;;;9.20;6.50;;;24.80;15.70;;;;;;5009841;28;48359;-67
2023/06/02 05:13:55;;;;;;;10.57;6.00;;;25.40;15.10;;;;;;5015931;28;46395;-67
2023/06/02 05:16:23;;;;;;;11.93;6.20;;;25.90;13.70;;;;;;5016866;28;46461;-67
2023/06/02 05:18:50;;;;;;;9.90;5.03;;;26.20;12.90;;;;;;5016996;28;45795;-68
2023/06/02 05:21:15;;;;;;;9.53;5.60;;;26.40;12.40;;;;;;5010361;28;46426;-67
2023/06/02 05:23:41;;;;;;;10.10;6.43;;;26.80;11.60;;;;;;5013192;28;46350;-67
2023/06/02 05:26:07;;;;;;;9.10;5.90;;;27.40;10.20;;;;;;5017453;28;46404;-67
2023/06/02 05:28:32;;;;;;;8.07;5.23;;;27.90;9.00;;;;;;5018020;28;46863;-67
2023/06/02 05:30:59;;;;;;;8.67;5.90;;;28.00;8.00;;;;;;5013671;28;46455;-66
2023/06/02 05:33:24;;;;;;;10.50;5.93;;;28.30;7.20;;;;;;5014918;28;46393;-66
2023/06/02 05:35:50;;;;;;;10.67;5.60;;;28.60;6.00;;;;;;5013569;28;46780;-66
2023/06/02 05:38:17;;;;;;;11.00;5.87;;;29.00;5.60;;;;;;5016047;28;46383;-66
2023/06/02 05:40:44;;;;;;;9.53;5.80;;;29.10;5.10;;;;;;5014007;28;47100;-66
2023/06/02 05:43:10;;;;;;;12.00;5.27;;;29.20;4.10;;;;;;5014178;28;46498;-66
2023/06/02 05:45:35;;;;;;;12.00;5.70;;;29.40;3.20;;;;;;5014691;28;46358;-67
2023/06/02 05:48:01;;;;;;;11.00;5.50;;;29.50;2.70;;;;;;5017581;28;46263;-68
2023/06/02 05:50:27;;;;;;;6.17;4.43;;;29.60;2.20;;;;;;5009228;28;47054;-65
2023/06/02 05:52:52;;;;;;;12.73;5.43;;;28.30;5.00;;;;;;5014522;28;46446;-64
2023/06/02 05:55:18;;;;;;;7.23;5.00;;;26.40;7.30;;;;;;5014948;28;45900;-64
2023/06/02 05:57:44;;;;;;;12.27;5.70;;;24.80;10.10;;;;;;5016556;28;46783;-65
2023/06/02 06:00:10;;;;;;;9.40;5.70;;;23.80;11.50;;;;;;5014791;28;46439;-65
2023/06/02 06:02:36;;;;;;;10.33;5.70;;;23.00;12.10;;;;;;5012198;28;46434;-65
2023/06/02 06:05:02;;;;;;;10.23;5.33;;;22.10;12.90;;;;;;4997727;28;46391;-65
2023/06/02 06:07:27;;;;;;;17.43;6.43;;;21.60;12.70;;;;;;5016440;28;46672;-66
2023/06/02 06:09:53;;;;;;;10.67;5.93;;;21.00;13.60;;;;;;5000385;28;47324;-66
2023/06/02 06:12:19;;;;;;;10.57;5.67;;;20.60;14.00;;;;;;5013612;28;46609;-65
2023/06/02 06:14:45;;;;;;;10.73;6.13;;;20.60;14.00;;;;;;5016995;28;46436;-64
2023/06/02 06:17:10;;;;;;;11.20;6.13;;;20.40;13.30;;;;;;5015464;28;46363;-64
2023/06/02 06:19:36;;;;;;;20.03;6.53;;;20.30;13.00;;;;;;5012656;28;47426;-65
2023/06/02 06:22:02;;;;;;;13.20;5.93;;;20.50;12.60;;;;;;5010934;28;46501;-66
2023/06/02 06:24:27;;;;;;;12.20;6.53;;;20.60;12.40;;;;;;5010817;28;46449;-65
2023/06/02 06:26:53;;;;;;;16.23;6.40;;;20.20;12.30;;;;;;5015192;28;46386;-66
2023/06/02 06:29:19;;;;;;;10.90;6.30;;;20.00;12.40;;;;;;5017938;28;46631;-65
2023/06/02 06:31:44;;;;;;;10.83;6.80;;;20.20;12.00;;;;;;5015498;28;45825;-65
2023/06/02 06:34:10;;;;;;;12.83;6.20;;;20.30;11.60;;;;;;5015748;28;46307;-65
2023/06/02 06:36:36;;;;;;;12.27;6.27;;;20.30;11.50;;;;;;5018805;28;46577;-66
2023/06/02 06:39:03;;;;;;;11.93;6.60;;;20.70;11.50;;;;;;5015171;28;46411;-63
2023/06/02 06:41:29;;;;;;;12.77;6.47;;;20.80;11.30;;;;;;5016401;28;46557;-65
2023/06/02 06:43:54;;;;;;;10.73;6.50;;;20.90;11.20;;;;;;5016483;28;46423;-63
2023/06/02 06:46:20;;;;;;;16.00;6.27;;;20.50;11.70;;;;;;5016626;28;46552;-65
2023/06/02 06:48:46;;;;;;;12.60;6.73;;;20.30;11.50;;;;;;5018355;28;46477;-65
2023/06/02 06:51:12;;;;;;;12.00;6.23;;;20.60;11.70;;;;;;5016119;28;46419;-64
2023/06/02 06:53:37;;;;;;;10.33;6.30;;;20.90;10.90;;;;;;5017940;28;46529;-65
2023/06/02 06:56:03;;;;;;;15.13;6.40;;;20.90;10.80;;;;;;5017765;28;46457;-67
2023/06/02 06:58:29;;;;;;;11.23;6.67;;;20.60;11.00;;;;;;5016072;28;46414;-65
2023/06/02 07:00:55;;;;;;;12.87;6.33;;;20.50;11.30;;;;;;5014666;28;46761;-65
2023/06/02 07:03:21;;;;;;;10.90;6.53;;;20.50;11.70;;;;;;5017593;28;45857;-65
2023/06/02 07:05:47;;;;;;;10.27;6.10;;;20.50;11.70;;;;;;5019818;28;46557;-64
2023/06/02 07:08:13;;;;;;;15.73;6.17;;;20.50;11.70;;;;;;5017612;28;47236;-67
2023/06/02 07:10:39;;;;;;;15.90;6.47;;;20.70;11.50;;;;;;5017394;28;46532;-65
2023/06/02 07:13:04;;;;;;;16.47;7.30;;;20.80;11.40;;;;;;5015588;28;45868;-66
2023/06/02 07:15:30;;;;;;;12.90;6.90;;;21.10;11.10;;;;;;5017626;28;46554;-66
2023/06/02 07:17:56;;;;;;;9.70;6.40;;;21.30;10.70;;;;;;5013529;28;46142;-65
2023/06/02 07:20:22;;;;;;;15.83;6.80;;;21.20;10.60;;;;;;5014893;28;45860;-64
2023/06/02 07:22:47;;;;;;;15.43;7.43;;;21.10;11.00;;;;;;5016502;28;46406;-64
2023/06/02 07:25:13;;;;;;;15.17;6.50;;;21.30;10.70;;;;;;5015979;28;46494;-65
2023/06/02 07:27:39;;;;;;;11.77;6.33;;;21.50;10.70;;;;;;5015963;28;46994;-65
2023/06/02 07:30:05;;;;;;;11.30;6.20;;;21.50;10.30;;;;;;5014893;28;46377;-65
2023/06/02 07:32:31;;;;;;;10.13;6.07;;;21.60;9.90;;;;;;5015938;28;46475;-66
2023/06/02 07:34:57;;;;;;;12.70;5.90;;;21.70;9.60;;;;;;5013538;28;46764;-66
2023/06/02 07:37:23;;;;;;;13.90;6.33;;;21.90;9.50;;;;;;5011086;28;45935;-65
2023/06/02 07:39:48;;;;;;;13.33;5.83;;;22.00;9.10;;;;;;5017277;28;46363;-63
2023/06/02 07:42:14;;;;;;;18.93;7.67;;;22.10;8.80;;;;;;5014879;28;46408;-64
2023/06/02 07:44:40;;;;;;;14.77;6.53;;;22.10;9.10;;;;;;5013516;28;46562;-64
2023/06/02 07:47:10;;;;;;;17.40;7.33;;;22.30;9.20;;;;;;5012197;28;46386;-64
2023/06/02 07:49:36;;;;;;;9.00;6.10;;;22.50;8.90;;;;;;5015674;28;46443;-64
2023/06/02 07:52:02;;;;;;;12.97;6.87;;;22.80;8.80;;;;;;5017829;28;46306;-66
2023/06/02 07:54:27;;;;;;;16.07;6.87;;;22.90;8.30;;;;;;5016506;28;46243;-66
2023/06/02 07:56:53;;;;;;;13.57;6.83;;;23.00;8.60;;;;;;5013893;28;47166;-63
2023/06/02 07:59:19;;;;;;;11.50;6.63;;;22.60;8.80;;;;;;5017181;28;45922;-65
2023/06/02 08:01:45;;;;;;;12.50;6.37;;;22.30;8.80;;;;;;5016137;28;46628;-66
2023/06/02 08:04:11;;;;;;;12.13;6.10;;;22.40;9.20;;;;;;5000450;28;46355;-63
2023/06/02 08:06:37;;;;;;;23.10;6.67;;;22.50;8.80;;;;;;5013100;28;46858;-65
2023/06/02 08:09:04;;;;;;;12.27;6.40;;;22.50;8.50;;;;;;5017866;28;45824;-62
2023/06/02 08:11:29;;;;;;;11.40;6.97;;;22.40;8.70;;;;;;5014035;28;46383;-64
2023/06/02 08:13:55;;;;;;;14.67;6.37;;;22.30;8.70;;;;;;5014270;28;46358;-64
2023/06/02 08:16:21;;;;;;;15.23;6.23;;;22.80;8.50;;;;;;5009817;28;47486;-65
2023/06/02 08:18:47;;;;;;;8.73;5.77;;;23.10;8.30;;;;;;5016413;28;46352;-64
2023/06/02 08:21:12;;;;;;;12.57;7.00;;;23.20;7.70;;;;;;5016831;28;46429;-63
2023/06/02 08:23:38;;;;;;;10.80;6.47;;;23.20;8.00;;;;;;5016845;28;46559;-65
2023/06/02 08:26:04;;;;;;;13.30;7.17;;;23.20;8.00;;;;;;5013279;28;46475;-64
2023/06/02 08:28:33;;;;;;;10.50;6.00;;;23.30;7.60;;;;;;5017370;28;46429;-65
2023/06/02 08:31:01;;;;;;;14.70;6.97;;;23.20;8.70;;;;;;5015375;28;46675;-64
2023/06/02 08:33:27;;;;;;;12.43;6.67;;;22.90;7.90;;;;;;5014360;28;46202;-64
2023/06/02 08:35:54;;;;;;;12.67;5.87;;;23.10;7.80;;;;;;5011229;28;46627;-64
2023/06/02 08:38:20;;;;;;;14.27;7.53;;;23.20;7.60;;;;;;5016412;28;46615;-65
2023/06/02 08:40:47;;;;;;;13.07;7.13;;;23.20;7.40;;;;;;5024472;28;46314;-64
2023/06/02 08:43:14;;;;;;;14.30;6.13;;;22.90;8.10;;;;;;5016413;28;46554;-65
2023/06/02 08:45:41;;;;;;;11.97;6.00;;;22.90;8.40;;;;;;5012722;28;47160;-64
2023/06/02 08:48:11;;;;;;;13.83;6.00;;;22.80;8.30;;;;;;5013019;28;46364;-64
2023/06/02 08:50:41;;;;;;;14.00;6.20;;;22.80;8.40;;;;;;5013822;28;46356;-64
2023/06/02 08:53:11;;;;;;;11.53;5.63;;;22.90;8.40;;;;;;5014801;28;46339;-65
2023/06/02 08:55:40;;;;;;;14.63;5.67;;;22.80;8.00;;;;;;5015384;28;46554;-65
2023/06/02 08:58:08;;;;;;;11.20;5.90;;;22.90;8.20;;;;;;5015263;28;46618;-63
2023/06/02 09:00:34;;;;;;;16.20;6.13;;;23.20;8.00;;;;;;4996017;28;46513;-64
2023/06/02 09:02:59;;;;;;;14.93;6.00;;;23.10;8.00;;;;;;5017450;28;46608;-64
2023/06/02 09:05:28;;;;;;;12.57;6.30;;;23.10;7.90;;;;;;5014295;28;47478;-64
2023/06/02 09:08:08;;;;;;;13.03;6.47;;;23.20;7.90;;;;;;5016321;28;46458;-64
2023/06/02 09:10:39;;;;;;;10.67;6.50;;;23.20;7.70;;;;;;5014357;28;45923;-64
2023/06/02 09:13:10;;;;;;;13.70;5.40;;;23.10;7.70;;;;;;5016386;28;46472;-64
2023/06/02 09:15:53;;;;;;;16.77;6.83;;;23.30;7.70;;;;;;5013655;28;46472;-63
2023/06/02 09:18:19;;;;;;;13.83;6.73;;;23.30;7.40;;;;;;4995193;28;46111;-63
2023/06/02 09:20:48;;;;;;;13.60;6.03;;;23.40;7.40;;;;;;5016598;28;46468;-63
2023/06/02 09:23:14;;;;;;;13.23;6.07;;;23.40;8.40;;;;;;5015548;28;46437;-63
2023/06/02 09:25:40;;;;;;;20.60;6.37;;;23.30;7.50;;;;;;5013109;28;46112;-64
2023/06/02 09:28:09;;;;;;;13.30;5.87;;;23.50;6.70;;;;;;5014445;28;46478;-65
2023/06/02 09:30:34;;;;;;;10.00;5.80;;;23.20;6.50;;;;;;5012602;28;45884;-63
2023/06/02 09:33:06;;;;;;;12.50;6.60;;;23.10;6.80;;;;;;5013268;28;45871;-63
2023/06/02 09:35:41;;;;;;;11.53;5.73;;;23.30;6.80;;;;;;5015063;28;46356;-63
2023/06/02 09:38:11;;;;;;;11.93;6.77;;;23.50;6.80;;;;;;5016952;28;46387;-65
2023/06/02 09:40:40;;;;;;;13.97;6.17;;;23.40;6.80;;;;;;5012521;28;46531;-64
2023/06/02 09:43:07;;;;;;;14.57;5.53;;;23.50;6.50;;;;;;5014963;28;46392;-64
2023/06/02 09:45:54;;;;;;;9.37;4.90;;;23.60;6.40;;;;;;5013882;28;46496;-65
2023/06/02 09:48:23;;;;;;;14.27;6.50;;;23.80;6.20;;;;;;5014235;28;46442;-65
2023/06/02 09:50:49;;;;;;;11.00;6.30;;;23.70;6.00;;;;;;5011074;28;46372;-64
2023/06/02 09:53:17;;;;;;;13.27;5.90;;;24.00;5.80;;;;;;5013622;28;46605;-65
2023/06/02 09:55:45;;;;;;;10.00;6.10;;;24.20;5.50;;;;;;5015530;28;47441;-65
2023/06/02 09:58:11;;;;;;;9.63;5.77;;;24.20;5.10;;;;;;5015877;28;45820;-66
2023/06/02 10:00:38;;;;;;;10.43;5.33;;;24.00;5.30;;;;;;5012711;28;46394;-65
2023/06/02 10:03:04;;;;;;;25.50;6.50;;;24.20;5.70;;;;;;5017521;28;46403;-65
2023/06/02 10:05:31;;;;;;;11.97;5.23;;;24.50;5.30;;;;;;5017445;28;46704;-65
2023/06/02 10:08:14;;;;;;;12.10;5.70;;;24.30;5.30;;;;;;5016868;28;46346;-67
2023/06/02 10:10:45;;;;;;;13.60;6.20;;;24.30;5.50;;;;;;4998481;28;47007;-66
2023/06/02 10:13:33;;;;;;;15.00;5.97;;;24.20;5.40;;;;;;5015810;28;46605;-65
2023/06/02 10:16:27;;;;;;;10.07;6.10;;;24.30;5.00;;;;;;5019408;28;46399;-67
2023/06/02 10:19:12;;;;;;;9.13;5.67;;;23.90;5.00;;;;;;5013924;28;46521;-64
2023/06/02 10:22:05;;;;;;;12.20;6.20;;;23.90;5.30;;;;;;5021724;28;46427;-66
2023/06/02 10:24:37;;;;;;;15.63;5.00;;;24.20;5.00;;;;;;5014677;28;46545;-66
2023/06/02 10:27:33;;;;;;;16.40;5.63;;;24.40;4.80;;;;;;5015879;28;46376;-66
2023/06/02 10:30:00;;;;;;;12.47;6.27;;;24.50;4.10;;;;;;5017418;28;45827;-65
2023/06/02 10:32:27;;;;;;;10.70;5.53;;;24.30;4.30;;;;;;5032950;28;45821;-67
2023/06/02 10:34:54;;;;;;;12.00;5.50;;;24.50;4.20;;;;;;5023649;28;46422;-66
2023/06/02 10:37:21;;;;;;;14.17;5.80;;;24.60;4.00;;;;;;5018202;28;47539;-65
2023/06/02 10:39:48;;;;;;;17.30;5.90;;;24.60;3.20;;;;;;5014460;28;46453;-65
2023/06/02 10:42:15;;;;;;;10.90;6.00;;;24.50;3.10;;;;;;5015501;28;46451;-64
2023/06/02 10:44:41;;;;;;;12.10;5.80;;;24.50;3.10;;;;;;5018765;28;46402;-64
2023/06/02 10:47:19;;;;;;;11.43;5.90;;;24.60;3.20;;;;;;5014568;28;46637;-63
2023/06/02 10:49:56;;;;;;;10.27;5.37;;;24.30;2.90;;;;;;5018755;28;46382;-65
2023/06/02 10:52:22;;;;;;;9.10;5.20;;;24.40;3.00;;;;;;5016757;28;46306;-63
2023/06/02 10:55:06;;;;;;;9.10;5.17;;;24.70;3.30;;;;;;5017095;28;46578;-64
2023/06/02 10:57:52;;;;;;;9.80;5.27;;;24.60;3.20;;;;;;5018367;28;47071;-63
2023/06/02 11:00:36;;;;;;;7.70;4.83;;;24.60;2.40;;;;;;5015649;28;46437;-65
2023/06/02 11:03:03;;;;;;;13.23;4.90;;;24.70;2.20;;;;;;5015193;28;46692;-63
2023/06/02 11:05:30;;;;;;;7.73;4.87;;;24.90;1.90;;;;;;5020053;28;46505;-63
2023/06/02 11:08:11;;;;;;;8.03;4.80;;;24.80;1.70;;;;;;5013300;28;46618;-64
2023/06/02 11:10:49;;;;;;;10.63;4.70;;;24.90;1.40;;;;;;5015788;28;46425;-64
2023/06/02 11:13:25;;;;;;;10.93;4.87;;;24.90;2.30;;;;;;5020784;28;46366;-64
2023/06/02 11:15:54;;;;;;;8.20;4.80;;;25.10;1.30;;;;;;5002583;28;46426;-64
2023/06/02 11:18:23;;;;;;;13.33;5.07;;;25.00;1.20;;;;;;5015936;28;47865;-65
2023/06/02 11:20:51;;;;;;;9.67;5.73;;;25.00;1.20;;;;;;5017944;28;46305;-66
2023/06/02 11:23:20;;;;;;;11.63;4.50;;;25.10;1.30;;;;;;5018655;28;46522;-65
2023/06/02 11:26:06;;;;;;;9.90;4.53;;;25.40;1.00;;;;;;5016333;28;46402;-65
2023/06/02 11:28:32;;;;;;;9.30;4.33;;;25.50;1.00;;;;;;5016974;28;46347;-65
2023/06/02 11:31:09;;;;;;;10.20;4.03;;;25.20;1.00;;;;;;5017749;28;46398;-64
2023/06/02 11:33:39;;;;;;;13.43;5.37;;;25.30;1.00;;;;;;5013957;28;46434;-64
2023/06/02 11:36:08;;;;;;;12.97;5.53;;;25.10;1.00;;;;;;5014297;28;46363;-64
2023/06/02 11:38:34;;;;;;;7.70;4.60;;;25.00;1.00;;;;;;5017159;28;46976;-63
2023/06/02 11:41:21;;;;;;;10.57;4.87;;;24.90;1.00;;;;;;5005683;28;45921;-63
2023/06/02 11:43:50;;;;;;;8.77;4.53;;;25.20;1.00;;;;;;5008090;28;46267;-63
2023/06/02 11:46:18;;;;;;;11.20;4.60;;;25.40;1.00;;;;;;5011904;28;46808;-64
2023/06/02 11:48:46;;;;;;;11.40;5.07;;;25.30;1.00;;;;;;5016387;28;46397;-64
2023/06/02 11:51:15;;;;;;;8.53;4.60;;;25.20;1.00;;;;;;5017732;28;46472;-65
2023/06/02 11:53:45;;;;;;;13.20;4.53;;;25.10;1.00;;;;;;5014356;28;46429;-63
2023/06/02 11:56:12;;;;;;;7.63;4.10;;;25.10;1.00;;;;;;5014418;28;46366;-65
2023/06/02 11:58:48;;;;;;;11.03;4.57;;;25.20;1.00;;;;;;5018342;28;46506;-65
2023/06/02 12:01:17;;;;;;;12.93;4.30;;;25.30;1.00;;;;;;4999036;28;46538;-64
2023/06/02 12:04:06;;;;;;;10.20;4.20;;;25.70;1.00;;;;;;5016054;28;46418;-63
2023/06/02 12:06:33;;;;;;;17.27;4.30;;;26.20;1.00;;;;;;5016380;28;46374;-65
2023/06/02 12:09:13;;;;;;;9.37;4.43;;;26.50;1.00;;;;;;5016165;28;46453;-65
2023/06/02 12:11:39;;;;;;;9.40;3.97;;;26.40;1.00;;;;;;5017747;28;46425;-66
2023/06/02 12:14:07;;;;;;;7.47;4.10;;;26.20;1.00;;;;;;5014676;28;46459;-63
2023/06/02 12:16:34;;;;;;;11.03;4.70;;;26.20;1.00;;;;;;5012668;28;46339;-65
2023/06/02 12:19:20;;;;;;;11.00;4.70;;;26.30;1.00;;;;;;5018118;28;46797;-64
2023/06/02 12:21:53;;;;;;;9.90;5.23;;;26.20;1.00;;;;;;5015799;28;46629;-64
2023/06/02 12:24:29;;;;;;;11.73;4.90;;;26.10;1.00;;;;;;5014881;28;46720;-64
2023/06/02 12:26:55;;;;;;;8.87;4.50;;;25.90;1.00;;;;;;5014435;28;46360;-63
2023/06/02 12:29:21;;;;;;;8.60;4.60;;;26.20;1.00;;;;;;5015721;28;46465;-63
2023/06/02 12:31:46;;;;;;;8.43;4.80;;;26.40;1.00;;;;;;5016823;28;46474;-63
2023/06/02 12:34:12;;;;;;;9.00;4.57;;;26.30;1.00;;;;;;5014218;28;46376;-65
2023/06/02 12:36:38;;;;;;;12.37;5.03;;;26.40;1.00;;;;;;5014653;28;46342;-64
2023/06/02 12:39:07;;;;;;;9.20;5.03;;;26.40;1.00;;;;;;5001654;28;47843;-64
2023/06/02 12:41:32;;;;;;;7.53;4.87;;;26.10;1.00;;;;;;4998054;28;45820;-64
2023/06/02 12:43:58;;;;;;;10.43;4.70;;;25.90;1.00;;;;;;5016693;28;46486;-64
2023/06/02 12:46:26;;;;;;;6.93;4.90;;;25.90;1.00;;;;;;5016585;28;46895;-63